sensor_id;sensor_type;location;lat;lon;timestamp;pressure;altitude;pressure_sealevel;temperature;humidity
75409;BME280;63979;55.644;37.734;2023-06-04T00:02:28;100393.84;;;7.52;70.72
75409;BME280;63979;55.644;37.734;2023-06-04T00:07:29;100372.53;;;7.35;71.27
75409;BME280;63979;55.644;37.734;2023-06-04T00:12:30;100349.69;;;7.12;71.22
75409;BME280;63979;55.644;37.734;2023-06-04T00:17:31;100402.41;;;7.40;70.59
75409;BME280;63979;55.644;37.734;2023-06-04T00:22:32;100413.38;;;7.32;70.25
75409;BME280;63979;55.644;37.734;2023-06-04T00:27:33;100406.41;;;7.30;70.36
75409;BME280;63979;55.644;37.734;2023-06-04T00:32:34;100415.72;;;7.19;70.68
75409;BME280;63979;55.644;37.734;2023-06-04T00:37:35;100422.81;;;7.19;70.19
75409;BME280;63979;55.644;37.734;2023-06-04T00:42:36;100417.03;;;7.30;70.20
75409;BME280;63979;55.644;37.734;2023-06-04T00:47:38;100426.81;;;7.29;70.33
75409;BME280;63979;55.644;37.734;2023-06-04T00:52:39;100424.88;;;7.12;71.03
75409;BME280;63979;55.644;37.734;2023-06-04T00:57:40;100432.06;;;7.10;71.53
75409;BME280;63979;55.644;37.734;2023-06-04T01:02:43;100433.06;;;7.08;71.11
75409;BME280;63979;55.644;37.734;2023-06-04T01:07:46;100437.50;;;7.07;71.84
75409;BME280;63979;55.644;37.734;2023-06-04T01:12:49;100439.22;;;7.08;72.06
75409;BME280;63979;55.644;37.734;2023-06-04T01:17:54;100445.19;;;7.13;70.21
75409;BME280;63979;55.644;37.734;2023-06-04T01:28:34;100411.06;;;7.25;68.10
75409;BME280;63979;55.644;37.734;2023-06-04T01:33:36;100444.03;;;7.58;67.67
75409;BME280;63979;55.644;37.734;2023-06-04T01:38:37;100456.25;;;7.62;67.58
75409;BME280;63979;55.644;37.734;2023-06-04T01:43:38;100461.38;;;7.67;67.11
75409;BME280;63979;55.644;37.734;2023-06-04T01:48:40;100463.44;;;7.79;66.76
75409;BME280;63979;55.644;37.734;2023-06-04T01:53:41;100470.47;;;7.80;66.45
75409;BME280;63979;55.644;37.734;2023-06-04T01:58:42;100477.22;;;7.87;66.29
75409;BME280;63979;55.644;37.734;2023-06-04T02:03:43;100470.47;;;7.80;65.89
75409;BME280;63979;55.644;37.734;2023-06-04T02:08:45;100485.69;;;7.95;65.94
75409;BME280;63979;55.644;37.734;2023-06-04T02:13:46;100493.81;;;8.11;66.01
75409;BME280;63979;55.644;37.734;2023-06-04T02:18:47;100497.03;;;8.18;65.46
75409;BME280;63979;55.644;37.734;2023-06-04T02:23:48;100451.50;;;7.88;65.35
75409;BME280;63979;55.644;37.734;2023-06-04T02:28:49;100496.34;;;8.14;65.53
75409;BME280;63979;55.644;37.734;2023-06-04T02:33:51;100514.56;;;8.22;65.81
75409;BME280;63979;55.644;37.734;2023-06-04T02:38:52;100524.44;;;8.20;66.08
75409;BME280;63979;55.644;37.734;2023-06-04T02:43:53;100519.06;;;8.40;65.24
75409;BME280;63979;55.644;37.734;2023-06-04T02:48:54;100529.69;;;8.40;65.44
75409;BME280;63979;55.644;37.734;2023-06-04T02:53:55;100481.66;;;8.24;65.44
75409;BME280;63979;55.644;37.734;2023-06-04T02:58:56;100543.59;;;8.64;65.39
75409;BME280;63979;55.644;37.734;2023-06-04T03:03:57;100551.41;;;8.67;65.23
75409;BME280;63979;55.644;37.734;2023-06-04T03:08:58;100551.22;;;8.71;65.32
75409;BME280;63979;55.644;37.734;2023-06-04T03:13:59;100557.25;;;8.75;65.28
75409;BME280;63979;55.644;37.734;2023-06-04T03:19:00;100550.59;;;8.84;64.63
75409;BME280;63979;55.644;37.734;2023-06-04T03:24:02;100579.91;;;9.01;65.05
75409;BME280;63979;55.644;37.734;2023-06-04T03:29:03;100596.84;;;9.17;64.56
75409;BME280;63979;55.644;37.734;2023-06-04T03:34:03;100589.34;;;9.25;64.48
75409;BME280;63979;55.644;37.734;2023-06-04T03:39:04;100610.34;;;9.49;63.85
75409;BME280;63979;55.644;37.734;2023-06-04T03:44:05;100602.47;;;9.63;63.56
75409;BME280;63979;55.644;37.734;2023-06-04T03:49:07;100604.81;;;9.86;62.52
75409;BME280;63979;55.644;37.734;2023-06-04T03:54:08;100577.53;;;9.81;62.00
75409;BME280;63979;55.644;37.734;2023-06-04T03:59:09;100605.97;;;9.98;61.47
75409;BME280;63979;55.644;37.734;2023-06-04T04:04:10;100613.31;;;10.10;61.06
75409;BME280;63979;55.644;37.734;2023-06-04T04:09:11;100616.56;;;10.32;60.85
75409;BME280;63979;55.644;37.734;2023-06-04T04:14:12;100622.69;;;10.66;59.42
75409;BME280;63979;55.644;37.734;2023-06-04T04:19:13;100622.06;;;11.08;58.97
75409;BME280;63979;55.644;37.734;2023-06-04T04:24:24;100593.41;;;11.26;57.82
75409;BME280;63979;55.644;37.734;2023-06-04T04:29:26;100613.16;;;11.53;56.66
75409;BME280;63979;55.644;37.734;2023-06-04T04:34:28;100625.69;;;11.97;56.30
75409;BME280;63979;55.644;37.734;2023-06-04T04:39:29;100633.38;;;12.17;55.89
75409;BME280;63979;55.644;37.734;2023-06-04T04:44:31;100631.25;;;12.23;55.18
75409;BME280;63979;55.644;37.734;2023-06-04T04:49:32;100642.41;;;12.43;54.93
75409;BME280;63979;55.644;37.734;2023-06-04T04:54:33;100634.66;;;12.67;54.77
75409;BME280;63979;55.644;37.734;2023-06-04T04:59:34;100640.88;;;12.11;54.49
75409;BME280;63979;55.644;37.734;2023-06-04T05:04:35;100646.25;;;11.97;55.59
75409;BME280;63979;55.644;37.734;2023-06-04T05:09:37;100650.06;;;12.35;55.12
75409;BME280;63979;55.644;37.734;2023-06-04T05:14:37;100652.63;;;13.06;53.13
75409;BME280;63979;55.644;37.734;2023-06-04T05:19:39;100658.34;;;13.81;51.38
75409;BME280;63979;55.644;37.734;2023-06-04T05:24:40;100635.53;;;13.88;49.51
75409;BME280;63979;55.644;37.734;2023-06-04T05:29:41;100651.41;;;14.17;46.90
75409;BME280;63979;55.644;37.734;2023-06-04T05:34:42;100648.09;;;15.83;44.00
75409;BME280;63979;55.644;37.734;2023-06-04T05:39:44;100648.53;;;17.77;39.44
75409;BME280;63979;55.644;37.734;2023-06-04T05:44:46;100644.09;;;19.77;35.09
75409;BME280;63979;55.644;37.734;2023-06-04T05:49:47;100658.22;;;21.74;32.17
75409;BME280;63979;55.644;37.734;2023-06-04T05:54:48;100654.00;;;23.09;29.20
75409;BME280;63979;55.644;37.734;2023-06-04T05:59:50;100629.56;;;24.07;28.22
75409;BME280;63979;55.644;37.734;2023-06-04T06:04:51;100648.66;;;24.15;26.66
75409;BME280;63979;55.644;37.734;2023-06-04T06:09:52;100665.47;;;25.91;25.91
75409;BME280;63979;55.644;37.734;2023-06-04T06:14:53;100672.78;;;22.26;28.25
75409;BME280;63979;55.644;37.734;2023-06-04T06:19:55;100664.97;;;23.42;28.06
75409;BME280;63979;55.644;37.734;2023-06-04T06:24:56;100659.69;;;26.09;25.78
75409;BME280;63979;55.644;37.734;2023-06-04T06:29:57;100683.09;;;26.64;23.87
75409;BME280;63979;55.644;37.734;2023-06-04T06:34:58;100667.31;;;24.75;25.45
75409;BME280;63979;55.644;37.734;2023-06-04T06:39:59;100677.31;;;24.03;26.96
75409;BME280;63979;55.644;37.734;2023-06-04T06:45:00;100623.44;;;25.69;23.29
75409;BME280;63979;55.644;37.734;2023-06-04T06:50:01;100673.38;;;25.32;24.62
75409;BME280;63979;55.644;37.734;2023-06-04T06:55:05;100675.78;;;24.88;24.99
75409;BME280;63979;55.644;37.734;2023-06-04T07:00:07;100666.75;;;26.03;22.97
75409;BME280;63979;55.644;37.734;2023-06-04T07:05:09;100672.06;;;22.50;26.03
75409;BME280;63979;55.644;37.734;2023-06-04T07:10:10;100687.91;;;21.22;28.31
75409;BME280;63979;55.644;37.734;2023-06-04T07:15:11;100677.72;;;22.83;27.68
75409;BME280;63979;55.644;37.734;2023-06-04T07:20:12;100679.50;;;21.61;29.58
75409;BME280;63979;55.644;37.734;2023-06-04T07:25:14;100685.66;;;20.90;29.85
75409;BME280;63979;55.644;37.734;2023-06-04T07:30:15;100676.47;;;22.51;28.05
75409;BME280;63979;55.644;37.734;2023-06-04T07:35:16;100678.00;;;26.46;22.81
75409;BME280;63979;55.644;37.734;2023-06-04T07:40:17;100675.34;;;26.53;21.84
75409;BME280;63979;55.644;37.734;2023-06-04T07:45:19;100690.09;;;26.37;22.58
75409;BME280;63979;55.644;37.734;2023-06-04T07:50:20;100686.44;;;24.75;22.38
75409;BME280;63979;55.644;37.734;2023-06-04T07:55:22;100680.69;;;22.97;25.16
75409;BME280;63979;55.644;37.734;2023-06-04T08:00:23;100682.91;;;21.98;26.42
75409;BME280;63979;55.644;37.734;2023-06-04T08:05:24;100686.09;;;20.85;28.59
75409;BME280;63979;55.644;37.734;2023-06-04T08:10:24;100691.88;;;19.97;29.90
75409;BME280;63979;55.644;37.734;2023-06-04T08:15:25;100683.50;;;18.72;31.31
75409;BME280;63979;55.644;37.734;2023-06-04T08:20:46;100688.78;;;20.58;30.20
75409;BME280;63979;55.644;37.734;2023-06-04T08:26:01;100679.69;;;26.91;20.98
75409;BME280;63979;55.644;37.734;2023-06-04T08:31:18;100706.22;;;25.55;19.69
75409;BME280;63979;55.644;37.734;2023-06-04T08:36:32;100666.56;;;20.72;25.95
75409;BME280;63979;55.644;37.734;2023-06-04T08:41:49;100702.78;;;18.06;29.78
75409;BME280;63979;55.644;37.734;2023-06-04T08:46:52;100658.06;;;17.17;31.29
75409;BME280;63979;55.644;37.734;2023-06-04T08:51:55;100692.22;;;18.24;30.33
75409;BME280;63979;55.644;37.734;2023-06-04T08:56:57;100694.00;;;20.13;26.62
75409;BME280;63979;55.644;37.734;2023-06-04T09:01:58;100693.53;;;19.40;26.46
75409;BME280;63979;55.644;37.734;2023-06-04T09:07:01;100688.97;;;19.41;27.31
75409;BME280;63979;55.644;37.734;2023-06-04T09:12:03;100701.28;;;19.93;28.10
75409;BME280;63979;55.644;37.734;2023-06-04T09:17:07;100630.31;;;18.82;28.12
75409;BME280;63979;55.644;37.734;2023-06-04T09:22:08;100704.28;;;19.01;29.17
75409;BME280;63979;55.644;37.734;2023-06-04T09:27:10;100707.84;;;18.41;31.19
75409;BME280;63979;55.644;37.734;2023-06-04T09:32:12;100701.03;;;16.75;32.59
75409;BME280;63979;55.644;37.734;2023-06-04T09:37:14;100693.63;;;17.54;31.08
75409;BME280;63979;55.644;37.734;2023-06-04T09:42:18;100711.97;;;18.03;30.77
75409;BME280;63979;55.644;37.734;2023-06-04T09:47:19;100713.47;;;18.80;28.46
75409;BME280;63979;55.644;37.734;2023-06-04T09:52:20;100709.88;;;17.86;30.12
75409;BME280;63979;55.644;37.734;2023-06-04T09:57:22;100711.06;;;17.50;31.41
75409;BME280;63979;55.644;37.734;2023-06-04T10:02:25;100704.13;;;17.80;31.21
75409;BME280;63979;55.644;37.734;2023-06-04T10:07:30;100714.66;;;17.83;30.80
75409;BME280;63979;55.644;37.734;2023-06-04T10:12:35;100706.63;;;19.16;29.17
75409;BME280;63979;55.644;37.734;2023-06-04T10:17:38;100694.22;;;22.81;23.61
75409;BME280;63979;55.644;37.734;2023-06-04T10:22:40;100702.72;;;21.91;24.08
75409;BME280;63979;55.644;37.734;2023-06-04T10:27:41;100690.59;;;25.41;21.28
75409;BME280;63979;55.644;37.734;2023-06-04T10:32:42;100697.69;;;27.09;18.77
75409;BME280;63979;55.644;37.734;2023-06-04T10:37:43;100707.44;;;25.84;20.10
75409;BME280;63979;55.644;37.734;2023-06-04T10:42:44;100695.16;;;24.70;19.73
75409;BME280;63979;55.644;37.734;2023-06-04T10:47:45;100691.88;;;25.84;18.74
75409;BME280;63979;55.644;37.734;2023-06-04T10:52:54;100679.38;;;25.36;19.31
75409;BME280;63979;55.644;37.734;2023-06-04T10:57:56;100692.53;;;22.88;22.94
75409;BME280;63979;55.644;37.734;2023-06-04T11:02:58;100693.31;;;19.72;26.48
75409;BME280;63979;55.644;37.734;2023-06-04T11:07:59;100653.41;;;18.04;29.21
75409;BME280;63979;55.644;37.734;2023-06-04T11:13:00;100700.38;;;18.33;29.54
75409;BME280;63979;55.644;37.734;2023-06-04T11:18:01;100703.22;;;18.11;30.63
75409;BME280;63979;55.644;37.734;2023-06-04T11:23:02;100700.19;;;18.25;29.50
75409;BME280;63979;55.644;37.734;2023-06-04T11:28:04;100685.47;;;19.69;29.13
75409;BME280;63979;55.644;37.734;2023-06-04T11:33:06;100701.00;;;19.96;27.08
75409;BME280;63979;55.644;37.734;2023-06-04T11:38:07;100691.44;;;21.32;25.71
75409;BME280;63979;55.644;37.734;2023-06-04T11:43:10;100688.69;;;20.40;25.91
75409;BME280;63979;55.644;37.734;2023-06-04T11:48:12;100652.38;;;18.77;29.15
75409;BME280;63979;55.644;37.734;2023-06-04T11:53:13;100706.06;;;18.61;28.74
75409;BME280;63979;55.644;37.734;2023-06-04T11:58:14;100710.47;;;18.31;28.85
75409;BME280;63979;55.644;37.734;2023-06-04T12:03:16;100697.28;;;17.96;29.52
75409;BME280;63979;55.644;37.734;2023-06-04T12:08:17;100702.78;;;18.06;29.10
75409;BME280;63979;55.644;37.734;2023-06-04T12:13:18;100682.34;;;19.54;29.09
75409;BME280;63979;55.644;37.734;2023-06-04T12:18:25;100698.47;;;20.61;26.99
75409;BME280;63979;55.644;37.734;2023-06-04T12:23:26;100701.03;;;19.86;26.76
75409;BME280;63979;55.644;37.734;2023-06-04T12:28:28;100692.44;;;18.93;28.21
75409;BME280;63979;55.644;37.734;2023-06-04T12:33:28;100704.50;;;18.58;28.51
75409;BME280;63979;55.644;37.734;2023-06-04T12:38:29;100709.88;;;17.86;28.91
75409;BME280;63979;55.644;37.734;2023-06-04T12:43:30;100705.19;;;17.88;29.29
75409;BME280;63979;55.644;37.734;2023-06-04T12:48:34;100698.94;;;17.88;29.68
75409;BME280;63979;55.644;37.734;2023-06-04T12:53:39;100664.94;;;17.85;29.64
75409;BME280;63979;55.644;37.734;2023-06-04T12:58:40;100651.25;;;18.59;28.19
75409;BME280;63979;55.644;37.734;2023-06-04T13:03:41;100695.41;;;20.07;26.54
75409;BME280;63979;55.644;37.734;2023-06-04T13:08:42;100702.72;;;19.97;26.25
75409;BME280;63979;55.644;37.734;2023-06-04T13:13:43;100677.41;;;19.19;26.41
75409;BME280;63979;55.644;37.734;2023-06-04T13:18:44;100684.72;;;18.58;26.78
75409;BME280;63979;55.644;37.734;2023-06-04T13:23:45;100689.44;;;18.96;26.79
75409;BME280;63979;55.644;37.734;2023-06-04T13:28:46;100684.75;;;18.98;28.78
75409;BME280;63979;55.644;37.734;2023-06-04T13:33:48;100686.75;;;18.14;29.08
75409;BME280;63979;55.644;37.734;2023-06-04T13:38:49;100675.97;;;17.50;29.23
75409;BME280;63979;55.644;37.734;2023-06-04T13:43:50;100682.09;;;17.20;30.62
75409;BME280;63979;55.644;37.734;2023-06-04T13:48:51;100668.28;;;16.91;31.02
75409;BME280;63979;55.644;37.734;2023-06-04T13:53:52;100648.16;;;16.95;30.88
75409;BME280;63979;55.644;37.734;2023-06-04T13:58:54;100688.03;;;16.80;30.53
75409;BME280;63979;55.644;37.734;2023-06-04T14:03:55;100697.25;;;16.67;30.86
75409;BME280;63979;55.644;37.734;2023-06-04T14:08:55;100695.09;;;17.15;30.35
75409;BME280;63979;55.644;37.734;2023-06-04T14:13:56;100693.56;;;17.44;30.95
75409;BME280;63979;55.644;37.734;2023-06-04T14:18:57;100633.97;;;17.57;29.69
75409;BME280;63979;55.644;37.734;2023-06-04T14:23:58;100691.06;;;17.53;30.55
75409;BME280;63979;55.644;37.734;2023-06-04T14:28:59;100678.91;;;17.15;30.45
75409;BME280;63979;55.644;37.734;2023-06-04T14:34:00;100677.84;;;16.84;30.74
75409;BME280;63979;55.644;37.734;2023-06-04T14:39:01;100678.31;;;16.56;30.60
75409;BME280;63979;55.644;37.734;2023-06-04T14:44:02;100670.56;;;16.29;31.15
75409;BME280;63979;55.644;37.734;2023-06-04T14:49:03;100667.38;;;17.13;30.71
75409;BME280;63979;55.644;37.734;2023-06-04T14:54:05;100667.28;;;17.03;30.99
75409;BME280;63979;55.644;37.734;2023-06-04T14:59:06;100663.06;;;17.22;31.10
75409;BME280;63979;55.644;37.734;2023-06-04T15:04:09;100662.81;;;17.25;30.88
75409;BME280;63979;55.644;37.734;2023-06-04T15:09:10;100662.06;;;16.68;31.78
75409;BME280;63979;55.644;37.734;2023-06-04T15:14:12;100669.50;;;16.31;32.21
75409;BME280;63979;55.644;37.734;2023-06-04T15:19:19;100661.13;;;16.01;33.56
75409;BME280;63979;55.644;37.734;2023-06-04T15:24:20;100665.69;;;15.76;34.58
75409;BME280;63979;55.644;37.734;2023-06-04T15:29:22;100656.53;;;15.55;34.38
75409;BME280;63979;55.644;37.734;2023-06-04T15:34:23;100661.16;;;15.66;33.89
75409;BME280;63979;55.644;37.734;2023-06-04T15:39:24;100658.59;;;15.51;35.13
75409;BME280;63979;55.644;37.734;2023-06-04T15:44:24;100647.69;;;15.42;34.63
75409;BME280;63979;55.644;37.734;2023-06-04T15:49:27;100645.44;;;15.36;35.10
75409;BME280;63979;55.644;37.734;2023-06-04T15:54:28;100629.81;;;15.17;35.32
75409;BME280;63979;55.644;37.734;2023-06-04T15:59:30;100612.16;;;15.02;35.22
75409;BME280;63979;55.644;37.734;2023-06-04T16:04:30;100641.50;;;15.28;35.41
75409;BME280;63979;55.644;37.734;2023-06-04T16:09:31;100600.19;;;15.06;35.54
75409;BME280;63979;55.644;37.734;2023-06-04T16:14:32;100654.22;;;15.26;35.79
75409;BME280;63979;55.644;37.734;2023-06-04T16:19:33;100617.13;;;14.95;35.96
75409;BME280;63979;55.644;37.734;2023-06-04T16:24:35;100638.22;;;15.12;36.56
75409;BME280;63979;55.644;37.734;2023-06-04T16:29:36;100647.28;;;15.11;35.80
75409;BME280;63979;55.644;37.734;2023-06-04T16:34:37;100637.34;;;14.88;38.13
75409;BME280;63979;55.644;37.734;2023-06-04T16:39:38;100641.22;;;14.84;37.15
75409;BME280;63979;55.644;37.734;2023-06-04T16:44:39;100650.03;;;14.86;38.03
75409;BME280;63979;55.644;37.734;2023-06-04T16:49:40;100637.50;;;14.74;37.06
75409;BME280;63979;55.644;37.734;2023-06-04T16:54:41;100647.06;;;14.78;37.41
75409;BME280;63979;55.644;37.734;2023-06-04T16:59:46;100644.53;;;14.63;37.53
75409;BME280;63979;55.644;37.734;2023-06-04T17:04:47;100660.53;;;14.65;37.19
75409;BME280;63979;55.644;37.734;2023-06-04T17:09:49;100649.06;;;14.50;38.19
75409;BME280;63979;55.644;37.734;2023-06-04T17:14:50;100654.41;;;14.50;38.60
75409;BME280;63979;55.644;37.734;2023-06-04T17:19:52;100649.78;;;14.52;38.40
75409;BME280;63979;55.644;37.734;2023-06-04T17:24:53;100650.13;;;14.35;39.66
75409;BME280;63979;55.644;37.734;2023-06-04T17:29:53;100654.75;;;14.33;39.76
75409;BME280;63979;55.644;37.734;2023-06-04T17:34:54;100662.16;;;14.17;40.14
75409;BME280;63979;55.644;37.734;2023-06-04T17:39:55;100645.59;;;14.10;40.00
75409;BME280;63979;55.644;37.734;2023-06-04T17:44:56;100622.22;;;13.99;40.30
75409;BME280;63979;55.644;37.734;2023-06-04T17:49:57;100609.41;;;13.78;40.54
75409;BME280;63979;55.644;37.734;2023-06-04T17:55:01;100651.63;;;13.88;41.39
75409;BME280;63979;55.644;37.734;2023-06-04T18:00:05;100609.72;;;13.60;41.73
75409;BME280;63979;55.644;37.734;2023-06-04T18:05:08;100662.75;;;13.82;42.01
75409;BME280;63979;55.644;37.734;2023-06-04T18:10:09;100632.03;;;13.61;42.08
75409;BME280;63979;55.644;37.734;2023-06-04T18:15:11;100656.53;;;13.69;43.76
75409;BME280;63979;55.644;37.734;2023-06-04T18:20:14;100663.81;;;13.54;44.92
75409;BME280;63979;55.644;37.734;2023-06-04T18:25:15;100664.09;;;13.50;44.86
75409;BME280;63979;55.644;37.734;2023-06-04T18:30:16;100659.47;;;13.52;42.56
75409;BME280;63979;55.644;37.734;2023-06-04T18:35:17;100661.81;;;13.43;42.58
75409;BME280;63979;55.644;37.734;2023-06-04T18:40:18;100669.72;;;13.32;43.22
75409;BME280;63979;55.644;37.734;2023-06-04T18:45:21;100671.66;;;13.30;42.75
75409;BME280;63979;55.644;37.734;2023-06-04T18:50:22;100664.38;;;13.32;43.46
75409;BME280;63979;55.644;37.734;2023-06-04T18:55:23;100654.47;;;13.20;44.00
75409;BME280;63979;55.644;37.734;2023-06-04T19:00:24;100650.25;;;13.02;43.85
75409;BME280;63979;55.644;37.734;2023-06-04T19:05:26;100663.25;;;13.22;44.62
75409;BME280;63979;55.644;37.734;2023-06-04T19:10:27;100660.94;;;13.16;45.11
75409;BME280;63979;55.644;37.734;2023-06-04T19:15:28;100651.63;;;12.95;45.21
75409;BME280;63979;55.644;37.734;2023-06-04T19:20:29;100661.19;;;12.99;45.23
75409;BME280;63979;55.644;37.734;2023-06-04T19:25:30;100660.16;;;12.87;46.47
75409;BME280;63979;55.644;37.734;2023-06-04T19:30:31;100635.97;;;12.74;46.16
75409;BME280;63979;55.644;37.734;2023-06-04T19:35:32;100657.13;;;12.65;45.97
75409;BME280;63979;55.644;37.734;2023-06-04T19:40:33;100664.31;;;12.64;46.51
75409;BME280;63979;55.644;37.734;2023-06-04T19:45:34;100666.34;;;12.61;46.96
75409;BME280;63979;55.644;37.734;2023-06-04T19:50:35;100659.53;;;12.41;47.36
75409;BME280;63979;55.644;37.734;2023-06-04T19:55:36;100650.00;;;12.51;47.48
75409;BME280;63979;55.644;37.734;2023-06-04T20:00:37;100647.78;;;12.43;46.17
75409;BME280;63979;55.644;37.734;2023-06-04T20:05:38;100635.84;;;12.35;46.82
75409;BME280;63979;55.644;37.734;2023-06-04T20:10:40;100635.72;;;12.36;46.89
75409;BME280;63979;55.644;37.734;2023-06-04T20:15:41;100636.88;;;12.32;47.23
75409;BME280;63979;55.644;37.734;2023-06-04T20:20:42;100647.88;;;12.28;49.20
75409;BME280;63979;55.644;37.734;2023-06-04T20:25:43;100637.84;;;12.17;49.31
75409;BME280;63979;55.644;37.734;2023-06-04T20:30:44;100643.47;;;12.12;48.71
75409;BME280;63979;55.644;37.734;2023-06-04T20:35:45;100639.78;;;12.15;48.15
75409;BME280;63979;55.644;37.734;2023-06-04T20:40:46;100647.09;;;12.11;48.32
75409;BME280;63979;55.644;37.734;2023-06-04T20:45:47;100637.63;;;12.06;48.17
75409;BME280;63979;55.644;37.734;2023-06-04T20:50:49;100622.25;;;11.95;48.21
75409;BME280;63979;55.644;37.734;2023-06-04T20:55:51;100637.16;;;11.99;48.48
75409;BME280;63979;55.644;37.734;2023-06-04T21:00:52;100642.50;;;11.99;48.66
75409;BME280;63979;55.644;37.734;2023-06-04T21:05:54;100639.06;;;11.97;48.39
75409;BME280;63979;55.644;37.734;2023-06-04T21:10:58;100597.72;;;11.73;48.54
75409;BME280;63979;55.644;37.734;2023-06-04T21:15:59;100633.16;;;11.92;48.85
75409;BME280;63979;55.644;37.734;2023-06-04T21:21:00;100633.53;;;11.86;48.98
75409;BME280;63979;55.644;37.734;2023-06-04T21:26:01;100624.28;;;11.76;50.09
75409;BME280;63979;55.644;37.734;2023-06-04T21:31:02;100596.75;;;11.60;49.90
75409;BME280;63979;55.644;37.734;2023-06-04T21:36:03;100614.16;;;11.67;50.36
75409;BME280;63979;55.644;37.734;2023-06-04T21:41:04;100584.25;;;11.30;51.68
75409;BME280;63979;55.644;37.734;2023-06-04T21:46:05;100618.03;;;11.47;50.72
75409;BME280;63979;55.644;37.734;2023-06-04T21:51:06;100618.91;;;11.32;51.51
75409;BME280;63979;55.644;37.734;2023-06-04T21:56:07;100633.88;;;11.20;53.08
75409;BME280;63979;55.644;37.734;2023-06-04T22:01:08;100631.88;;;11.23;52.69
75409;BME280;63979;55.644;37.734;2023-06-04T22:06:09;100629.66;;;11.16;52.85
75409;BME280;63979;55.644;37.734;2023-06-04T22:11:11;100613.31;;;10.90;53.69
75409;BME280;63979;55.644;37.734;2023-06-04T22:16:12;100614.50;;;11.01;53.22
75409;BME280;63979;55.644;37.734;2023-06-04T22:21:13;100626.91;;;11.02;53.53
75409;BME280;63979;55.644;37.734;2023-06-04T22:26:14;100600.72;;;10.92;54.32
75409;BME280;63979;55.644;37.734;2023-06-04T22:31:15;100605.38;;;10.73;54.81
75409;BME280;63979;55.644;37.734;2023-06-04T22:36:17;100619.84;;;10.69;55.05
75409;BME280;63979;55.644;37.734;2023-06-04T22:41:19;100616.91;;;10.74;55.33
75409;BME280;63979;55.644;37.734;2023-06-04T22:46:21;100599.03;;;10.60;54.99
75409;BME280;63979;55.644;37.734;2023-06-04T22:51:22;100543.91;;;10.27;54.91
75409;BME280;63979;55.644;37.734;2023-06-04T22:56:23;100611.41;;;10.61;55.11
75409;BME280;63979;55.644;37.734;2023-06-04T23:01:24;100573.19;;;10.29;55.82
75409;BME280;63979;55.644;37.734;2023-06-04T23:06:26;100615.66;;;10.49;55.62
75409;BME280;63979;55.644;37.734;2023-06-04T23:11:27;100614.63;;;10.52;56.24
75409;BME280;63979;55.644;37.734;2023-06-04T23:16:28;100583.34;;;10.38;56.04
75409;BME280;63979;55.644;37.734;2023-06-04T23:21:29;100619.09;;;10.51;55.98
75409;BME280;63979;55.644;37.734;2023-06-04T23:26:30;100625.16;;;10.38;57.16
75409;BME280;63979;55.644;37.734;2023-06-04T23:31:31;100617.34;;;10.35;56.44
75409;BME280;63979;55.644;37.734;2023-06-04T23:36:32;100629.28;;;10.27;58.26
75409;BME280;63979;55.644;37.734;2023-06-04T23:41:33;100621.63;;;10.04;58.76
75409;BME280;63979;55.644;37.734;2023-06-04T23:46:35;100614.44;;;10.06;58.33
75409;BME280;63979;55.644;37.734;2023-06-04T23:51:36;100602.81;;;10.07;58.25
75409;BME280;63979;55.644;37.734;2023-06-04T23:56:37;100610.69;;;9.93;59.99
